sensor_id;sensor_type;location;lat;lon;timestamp;temperature;humidity
16491;DHT22;8356;51.214;3.270;2022-12-16T00:00:03;128.40;2252.80
16491;DHT22;8356;51.214;3.270;2022-12-16T00:02:29;128.40;2252.80
16491;DHT22;8356;51.214;3.270;2022-12-16T00:04:55;128.40;2252.80
16491;DHT22;8356;51.214;3.270;2022-12-16T00:07:22;128.70;2252.80
16491;DHT22;8356;51.214;3.270;2022-12-16T00:09:48;128.60;2252.80
16491;DHT22;8356;51.214;3.270;2022-12-16T00:12:13;128.40;2252.80
16491;DHT22;8356;51.214;3.270;2022-12-16T00:14:39;128.20;2252.80
16491;DHT22;8356;51.214;3.270;2022-12-16T00:17:05;128.30;2252.80
16491;DHT22;8356;51.214;3.270;2022-12-16T00:19:30;128.20;2252.80
16491;DHT22;8356;51.214;3.270;2022-12-16T00:21:56;128.10;2252.80
16491;DHT22;8356;51.214;3.270;2022-12-16T00:24:22;128.10;2252.80
16491;DHT22;8356;51.214;3.270;2022-12-16T00:26:47;128.10;2252.80
16491;DHT22;8356;51.214;3.270;2022-12-16T00:29:13;128.10;2252.80
16491;DHT22;8356;51.214;3.270;2022-12-16T00:31:39;128.20;2252.80
16491;DHT22;8356;51.214;3.270;2022-12-16T00:34:05;128.10;2252.80
16491;DHT22;8356;51.214;3.270;2022-12-16T00:36:30;128.20;2252.80
16491;DHT22;8356;51.214;3.270;2022-12-16T00:38:56;103.30;2227.20
16491;DHT22;8356;51.214;3.270;2022-12-16T00:41:22;103.00;2227.20
16491;DHT22;8356;51.214;3.270;2022-12-16T00:43:47;103.20;2227.20
16491;DHT22;8356;51.214;3.270;2022-12-16T00:46:13;128.00;2252.80
16491;DHT22;8356;51.214;3.270;2022-12-16T00:48:39;103.30;2227.20
16491;DHT22;8356;51.214;3.270;2022-12-16T00:51:04;128.10;2252.80
16491;DHT22;8356;51.214;3.270;2022-12-16T00:53:30;128.40;2252.80
16491;DHT22;8356;51.214;3.270;2022-12-16T00:56:08;128.70;2252.80
16491;DHT22;8356;51.214;3.270;2022-12-16T00:58:35;128.70;2252.80
16491;DHT22;8356;51.214;3.270;2022-12-16T01:01:01;128.70;2252.80
16491;DHT22;8356;51.214;3.270;2022-12-16T01:03:27;128.60;2252.80
16491;DHT22;8356;51.214;3.270;2022-12-16T01:05:52;128.50;2252.80
16491;DHT22;8356;51.214;3.270;2022-12-16T01:08:18;128.30;2252.80
16491;DHT22;8356;51.214;3.270;2022-12-16T01:10:55;128.30;2252.80
16491;DHT22;8356;51.214;3.270;2022-12-16T01:13:22;153.60;2252.80
16491;DHT22;8356;51.214;3.270;2022-12-16T01:15:49;128.30;2252.80
16491;DHT22;8356;51.214;3.270;2022-12-16T01:18:15;128.40;2252.80
16491;DHT22;8356;51.214;3.270;2022-12-16T01:20:41;128.40;2252.80
16491;DHT22;8356;51.214;3.270;2022-12-16T01:23:06;128.50;2252.80
16491;DHT22;8356;51.214;3.270;2022-12-16T01:25:32;128.50;2252.80
16491;DHT22;8356;51.214;3.270;2022-12-16T01:27:58;128.30;2252.80
16491;DHT22;8356;51.214;3.270;2022-12-16T01:30:24;128.20;2252.80
16491;DHT22;8356;51.214;3.270;2022-12-16T01:32:50;128.20;2252.80
16491;DHT22;8356;51.214;3.270;2022-12-16T01:35:16;128.20;2252.80
16491;DHT22;8356;51.214;3.270;2022-12-16T01:37:41;128.30;2252.80
16491;DHT22;8356;51.214;3.270;2022-12-16T01:40:16;128.20;2252.80
16491;DHT22;8356;51.214;3.270;2022-12-16T01:42:43;128.30;2252.80
16491;DHT22;8356;51.214;3.270;2022-12-16T01:45:32;128.20;2252.80
16491;DHT22;8356;51.214;3.270;2022-12-16T01:48:12;128.20;2252.80
16491;DHT22;8356;51.214;3.270;2022-12-16T01:50:40;128.00;2252.80
16491;DHT22;8356;51.214;3.270;2022-12-16T01:53:07;128.00;2252.80
16491;DHT22;8356;51.214;3.270;2022-12-16T01:55:44;128.10;2252.80
16491;DHT22;8356;51.214;3.270;2022-12-16T01:58:14;128.10;2252.80
16491;DHT22;8356;51.214;3.270;2022-12-16T02:00:43;128.20;2252.80
16491;DHT22;8356;51.214;3.270;2022-12-16T02:03:09;128.20;2252.80
16491;DHT22;8356;51.214;3.270;2022-12-16T02:05:37;128.50;2252.80
16491;DHT22;8356;51.214;3.270;2022-12-16T02:08:14;128.30;2252.80
16491;DHT22;8356;51.214;3.270;2022-12-16T02:16:05;128.10;2252.80
16491;DHT22;8356;51.214;3.270;2022-12-16T02:30:07;128.00;2252.80
16491;DHT22;8356;51.214;3.270;2022-12-16T02:38:20;128.00;2252.80
16491;DHT22;8356;51.214;3.270;2022-12-16T02:41:02;103.30;2227.20
16491;DHT22;8356;51.214;3.270;2022-12-16T02:46:13;103.10;2227.20
16491;DHT22;8356;51.214;3.270;2022-12-16T02:48:39;103.20;2227.20
16491;DHT22;8356;51.214;3.270;2022-12-16T02:51:05;103.20;2227.20
16491;DHT22;8356;51.214;3.270;2022-12-16T02:53:33;103.10;2227.20
16491;DHT22;8356;51.214;3.270;2022-12-16T03:04:34;103.20;2227.20
16491;DHT22;8356;51.214;3.270;2022-12-16T03:07:04;103.20;2227.20
16491;DHT22;8356;51.214;3.270;2022-12-16T03:09:32;103.10;2227.20
16491;DHT22;8356;51.214;3.270;2022-12-16T03:12:02;103.20;2227.20
16491;DHT22;8356;51.214;3.270;2022-12-16T03:14:31;103.20;2227.20
16491;DHT22;8356;51.214;3.270;2022-12-16T03:16:58;103.20;2227.20
16491;DHT22;8356;51.214;3.270;2022-12-16T03:19:25;103.20;2227.20
16491;DHT22;8356;51.214;3.270;2022-12-16T03:24:22;103.20;2227.20
16491;DHT22;8356;51.214;3.270;2022-12-16T03:29:51;103.20;2227.20
16491;DHT22;8356;51.214;3.270;2022-12-16T03:32:25;103.20;2227.20
16491;DHT22;8356;51.214;3.270;2022-12-16T03:35:06;103.30;2227.20
16491;DHT22;8356;51.214;3.270;2022-12-16T03:37:34;103.20;2227.20
16491;DHT22;8356;51.214;3.270;2022-12-16T03:40:04;103.20;2227.20
16491;DHT22;8356;51.214;3.270;2022-12-16T03:42:31;103.30;2227.20
16491;DHT22;8356;51.214;3.270;2022-12-16T03:44:58;103.30;2227.20
16491;DHT22;8356;51.214;3.270;2022-12-16T03:47:28;103.10;2227.20
16491;DHT22;8356;51.214;3.270;2022-12-16T03:49:54;103.20;2227.20
16491;DHT22;8356;51.214;3.270;2022-12-16T03:52:20;103.20;2227.20
16491;DHT22;8356;51.214;3.270;2022-12-16T03:54:45;102.80;2227.20
16491;DHT22;8356;51.214;3.270;2022-12-16T03:57:11;103.10;2227.20
16491;DHT22;8356;51.214;3.270;2022-12-16T03:59:37;103.10;2227.20
16491;DHT22;8356;51.214;3.270;2022-12-16T04:02:03;103.10;2227.20
16491;DHT22;8356;51.214;3.270;2022-12-16T04:04:29;103.20;2227.20
16491;DHT22;8356;51.214;3.270;2022-12-16T04:06:54;103.10;2227.20
16491;DHT22;8356;51.214;3.270;2022-12-16T04:09:38;103.10;2227.20
16491;DHT22;8356;51.214;3.270;2022-12-16T04:12:04;103.10;2227.20
16491;DHT22;8356;51.214;3.270;2022-12-16T04:14:49;103.10;2227.20
16491;DHT22;8356;51.214;3.270;2022-12-16T04:17:33;103.10;2227.20
16491;DHT22;8356;51.214;3.270;2022-12-16T04:20:18;103.20;2227.20
16491;DHT22;8356;51.214;3.270;2022-12-16T04:23:03;103.20;2227.20
16491;DHT22;8356;51.214;3.270;2022-12-16T04:25:48;103.30;2227.20
16491;DHT22;8356;51.214;3.270;2022-12-16T04:28:13;128.00;2252.80
16491;DHT22;8356;51.214;3.270;2022-12-16T04:30:39;103.20;2227.20
16491;DHT22;8356;51.214;3.270;2022-12-16T04:33:14;103.20;2227.20
16491;DHT22;8356;51.214;3.270;2022-12-16T04:35:59;103.20;2227.20
16491;DHT22;8356;51.214;3.270;2022-12-16T04:38:44;103.20;2227.20
16491;DHT22;8356;51.214;3.270;2022-12-16T04:41:28;103.10;2227.20
16491;DHT22;8356;51.214;3.270;2022-12-16T04:44:12;103.00;2227.20
16491;DHT22;8356;51.214;3.270;2022-12-16T04:46:57;103.00;2227.20
16491;DHT22;8356;51.214;3.270;2022-12-16T04:49:41;103.00;2227.20
16491;DHT22;8356;51.214;3.270;2022-12-16T04:52:25;102.90;2227.20
16491;DHT22;8356;51.214;3.270;2022-12-16T04:55:10;102.90;2227.20
16491;DHT22;8356;51.214;3.270;2022-12-16T04:57:57;103.00;2227.20
16491;DHT22;8356;51.214;3.270;2022-12-16T05:00:42;102.90;2227.20
16491;DHT22;8356;51.214;3.270;2022-12-16T05:03:27;103.00;2227.20
16491;DHT22;8356;51.214;3.270;2022-12-16T05:06:12;102.90;2227.20
16491;DHT22;8356;51.214;3.270;2022-12-16T05:08:56;103.00;2227.20
16491;DHT22;8356;51.214;3.270;2022-12-16T05:11:40;103.00;2227.20
16491;DHT22;8356;51.214;3.270;2022-12-16T05:14:24;103.10;2227.20
16491;DHT22;8356;51.214;3.270;2022-12-16T05:17:08;103.20;2227.20
16491;DHT22;8356;51.214;3.270;2022-12-16T05:19:52;103.10;2227.20
16491;DHT22;8356;51.214;3.270;2022-12-16T05:22:36;103.10;2227.20
16491;DHT22;8356;51.214;3.270;2022-12-16T05:25:21;103.00;2227.20
16491;DHT22;8356;51.214;3.270;2022-12-16T05:28:05;103.00;2227.20
16491;DHT22;8356;51.214;3.270;2022-12-16T05:30:49;103.00;2227.20
16491;DHT22;8356;51.214;3.270;2022-12-16T05:33:33;103.10;2227.20
16491;DHT22;8356;51.214;3.270;2022-12-16T05:36:18;103.30;2227.20
16491;DHT22;8356;51.214;3.270;2022-12-16T05:39:02;103.20;2227.20
16491;DHT22;8356;51.214;3.270;2022-12-16T05:41:46;103.30;2227.20
16491;DHT22;8356;51.214;3.270;2022-12-16T05:44:31;103.20;2227.20
16491;DHT22;8356;51.214;3.270;2022-12-16T05:47:15;103.20;2227.20
16491;DHT22;8356;51.214;3.270;2022-12-16T05:49:59;103.10;2227.20
16491;DHT22;8356;51.214;3.270;2022-12-16T05:52:53;103.00;2227.20
16491;DHT22;8356;51.214;3.270;2022-12-16T05:55:38;103.00;2227.20
16491;DHT22;8356;51.214;3.270;2022-12-16T05:58:22;103.30;2227.20
16491;DHT22;8356;51.214;3.270;2022-12-16T06:01:06;103.10;2227.20
16491;DHT22;8356;51.214;3.270;2022-12-16T06:03:50;103.10;2227.20
16491;DHT22;8356;51.214;3.270;2022-12-16T06:06:34;102.60;2227.20
16491;DHT22;8356;51.214;3.270;2022-12-16T06:09:19;77.50;2227.20
16491;DHT22;8356;51.214;3.270;2022-12-16T06:12:03;77.30;2227.20
16491;DHT22;8356;51.214;3.270;2022-12-16T06:14:48;77.50;2227.20
16491;DHT22;8356;51.214;3.270;2022-12-16T06:17:32;77.60;2227.20
16491;DHT22;8356;51.214;3.270;2022-12-16T06:20:16;102.60;2227.20
16491;DHT22;8356;51.214;3.270;2022-12-16T06:23:00;102.80;2227.20
16491;DHT22;8356;51.214;3.270;2022-12-16T06:25:44;102.50;2227.20
16491;DHT22;8356;51.214;3.270;2022-12-16T06:28:28;102.40;2227.20
16491;DHT22;8356;51.214;3.270;2022-12-16T06:31:13;102.60;2227.20
16491;DHT22;8356;51.214;3.270;2022-12-16T06:33:57;103.00;2227.20
16491;DHT22;8356;51.214;3.270;2022-12-16T06:36:41;103.20;2227.20
16491;DHT22;8356;51.214;3.270;2022-12-16T06:39:25;103.30;2227.20
16491;DHT22;8356;51.214;3.270;2022-12-16T06:42:09;103.20;2227.20
16491;DHT22;8356;51.214;3.270;2022-12-16T06:44:53;103.20;2227.20
16491;DHT22;8356;51.214;3.270;2022-12-16T06:47:38;102.80;2227.20
16491;DHT22;8356;51.214;3.270;2022-12-16T06:50:22;102.80;2227.20
16491;DHT22;8356;51.214;3.270;2022-12-16T06:53:06;102.80;2227.20
16491;DHT22;8356;51.214;3.270;2022-12-16T06:55:50;103.00;2227.20
16491;DHT22;8356;51.214;3.270;2022-12-16T06:58:35;103.00;2227.20
16491;DHT22;8356;51.214;3.270;2022-12-16T07:01:18;103.10;2227.20
16491;DHT22;8356;51.214;3.270;2022-12-16T07:04:03;103.10;2227.20
16491;DHT22;8356;51.214;3.270;2022-12-16T07:06:47;103.20;2227.20
16491;DHT22;8356;51.214;3.270;2022-12-16T07:09:31;103.10;2227.20
16491;DHT22;8356;51.214;3.270;2022-12-16T07:12:15;103.20;2227.20
16491;DHT22;8356;51.214;3.270;2022-12-16T07:14:59;103.30;2227.20
16491;DHT22;8356;51.214;3.270;2022-12-16T07:17:46;103.30;2227.20
16491;DHT22;8356;51.214;3.270;2022-12-16T07:20:30;128.00;2252.80
16491;DHT22;8356;51.214;3.270;2022-12-16T07:23:14;128.00;2252.80
16491;DHT22;8356;51.214;3.270;2022-12-16T07:25:59;128.00;2252.80
16491;DHT22;8356;51.214;3.270;2022-12-16T07:28:43;103.30;2227.20
16491;DHT22;8356;51.214;3.270;2022-12-16T07:31:27;103.10;2227.20
16491;DHT22;8356;51.214;3.270;2022-12-16T07:34:11;103.30;2227.20
16491;DHT22;8356;51.214;3.270;2022-12-16T07:36:55;103.10;2227.20
16491;DHT22;8356;51.214;3.270;2022-12-16T07:39:39;103.20;2227.20
16491;DHT22;8356;51.214;3.270;2022-12-16T07:42:23;103.30;2227.20
16491;DHT22;8356;51.214;3.270;2022-12-16T07:45:08;128.00;2252.80
16491;DHT22;8356;51.214;3.270;2022-12-16T07:47:53;103.20;2227.20
16491;DHT22;8356;51.214;3.270;2022-12-16T07:50:37;103.20;2227.20
16491;DHT22;8356;51.214;3.270;2022-12-16T07:53:22;103.30;2227.20
16491;DHT22;8356;51.214;3.270;2022-12-16T07:56:07;103.20;2227.20
16491;DHT22;8356;51.214;3.270;2022-12-16T07:58:51;103.20;2227.20
16491;DHT22;8356;51.214;3.270;2022-12-16T08:01:35;103.20;2227.20
16491;DHT22;8356;51.214;3.270;2022-12-16T08:04:19;103.20;2227.20
16491;DHT22;8356;51.214;3.270;2022-12-16T08:07:04;103.20;2227.20
16491;DHT22;8356;51.214;3.270;2022-12-16T08:09:48;103.30;2227.20
16491;DHT22;8356;51.214;3.270;2022-12-16T08:12:32;103.30;2227.20
16491;DHT22;8356;51.214;3.270;2022-12-16T08:15:16;103.30;2227.20
16491;DHT22;8356;51.214;3.270;2022-12-16T08:18:00;103.10;2227.20
16491;DHT22;8356;51.214;3.270;2022-12-16T08:20:44;103.30;2227.20
16491;DHT22;8356;51.214;3.270;2022-12-16T08:23:28;103.10;2227.20
16491;DHT22;8356;51.214;3.270;2022-12-16T08:26:12;103.20;2227.20
16491;DHT22;8356;51.214;3.270;2022-12-16T08:28:56;103.00;2227.20
16491;DHT22;8356;51.214;3.270;2022-12-16T08:31:40;103.10;2227.20
16491;DHT22;8356;51.214;3.270;2022-12-16T08:34:25;103.20;2227.20
16491;DHT22;8356;51.214;3.270;2022-12-16T08:37:09;103.20;2227.20
16491;DHT22;8356;51.214;3.270;2022-12-16T08:39:53;103.30;2227.20
16491;DHT22;8356;51.214;3.270;2022-12-16T08:42:37;103.20;2227.20
16491;DHT22;8356;51.214;3.270;2022-12-16T08:45:22;103.30;2227.20
16491;DHT22;8356;51.214;3.270;2022-12-16T08:48:06;103.10;2227.20
16491;DHT22;8356;51.214;3.270;2022-12-16T08:50:50;103.30;2227.20
16491;DHT22;8356;51.214;3.270;2022-12-16T08:53:34;128.10;2252.80
16491;DHT22;8356;51.214;3.270;2022-12-16T08:56:18;128.10;2252.80
16491;DHT22;8356;51.214;3.270;2022-12-16T08:59:02;128.20;2252.80
16491;DHT22;8356;51.214;3.270;2022-12-16T09:01:46;128.40;2252.80
16491;DHT22;8356;51.214;3.270;2022-12-16T09:04:30;128.30;2252.80
16491;DHT22;8356;51.214;3.270;2022-12-16T09:07:14;128.30;2252.80
16491;DHT22;8356;51.214;3.270;2022-12-16T09:09:58;128.40;2252.80
16491;DHT22;8356;51.214;3.270;2022-12-16T09:12:42;128.60;2252.80
16491;DHT22;8356;51.214;3.270;2022-12-16T09:15:26;128.70;2252.80
16491;DHT22;8356;51.214;3.270;2022-12-16T09:18:10;128.70;2252.80
16491;DHT22;8356;51.214;3.270;2022-12-16T09:20:54;128.70;2252.80
16491;DHT22;8356;51.214;3.270;2022-12-16T09:23:38;128.60;2252.80
16491;DHT22;8356;51.214;3.270;2022-12-16T09:26:22;128.80;2252.80
16491;DHT22;8356;51.214;3.270;2022-12-16T09:29:06;128.90;2252.80
16491;DHT22;8356;51.214;3.270;2022-12-16T09:31:50;153.60;2252.80
16491;DHT22;8356;51.214;3.270;2022-12-16T09:34:34;153.80;2252.80
16491;DHT22;8356;51.214;3.270;2022-12-16T09:37:18;154.10;2252.80
16491;DHT22;8356;51.214;3.270;2022-12-16T09:40:03;154.10;2252.80
16491;DHT22;8356;51.214;3.270;2022-12-16T09:42:49;154.00;2252.80
16491;DHT22;8356;51.214;3.270;2022-12-16T09:48:26;153.80;2252.80
16491;DHT22;8356;51.214;3.270;2022-12-16T09:51:13;154.10;2252.80
16491;DHT22;8356;51.214;3.270;2022-12-16T09:53:59;154.10;2252.80
16491;DHT22;8356;51.214;3.270;2022-12-16T09:56:44;154.20;2252.80
16491;DHT22;8356;51.214;3.270;2022-12-16T09:59:32;154.30;2252.80
16491;DHT22;8356;51.214;3.270;2022-12-16T10:02:18;154.20;2252.80
16491;DHT22;8356;51.214;3.270;2022-12-16T10:05:12;154.10;2252.80
16491;DHT22;8356;51.214;3.270;2022-12-16T10:08:18;154.20;2252.80
16491;DHT22;8356;51.214;3.270;2022-12-16T10:11:11;154.20;2252.80
16491;DHT22;8356;51.214;3.270;2022-12-16T10:14:08;154.30;2252.80
16491;DHT22;8356;51.214;3.270;2022-12-16T10:20:12;154.30;2252.80
16491;DHT22;8356;51.214;3.270;2022-12-16T10:23:02;154.30;2252.80
16491;DHT22;8356;51.214;3.270;2022-12-16T10:25:55;154.30;2252.80
16491;DHT22;8356;51.214;3.270;2022-12-16T10:28:48;154.40;2252.80
16491;DHT22;8356;51.214;3.270;2022-12-16T10:31:36;154.10;2252.80
16491;DHT22;8356;51.214;3.270;2022-12-16T10:34:26;154.30;2252.80
16491;DHT22;8356;51.214;3.270;2022-12-16T10:37:38;154.50;2252.80
16491;DHT22;8356;51.214;3.270;2022-12-16T10:40:26;154.50;2252.80
16491;DHT22;8356;51.214;3.270;2022-12-16T10:43:18;179.30;2252.80
16491;DHT22;8356;51.214;3.270;2022-12-16T10:46:12;179.40;2252.80
16491;DHT22;8356;51.214;3.270;2022-12-16T10:48:59;179.40;2252.80
16491;DHT22;8356;51.214;3.270;2022-12-16T10:51:43;179.50;2252.80
16491;DHT22;8356;51.214;3.270;2022-12-16T10:54:43;179.60;2252.80
16491;DHT22;8356;51.214;3.270;2022-12-16T10:57:54;179.70;2252.80
16491;DHT22;8356;51.214;3.270;2022-12-16T11:00:48;179.70;2252.80
16491;DHT22;8356;51.214;3.270;2022-12-16T11:03:35;179.70;2252.80
16491;DHT22;8356;51.214;3.270;2022-12-16T11:06:39;179.80;2252.80
16491;DHT22;8356;51.214;3.270;2022-12-16T11:09:28;179.90;2252.80
16491;DHT22;8356;51.214;3.270;2022-12-16T11:12:28;179.90;2252.80
16491;DHT22;8356;51.214;3.270;2022-12-16T11:15:28;179.90;2252.80
16491;DHT22;8356;51.214;3.270;2022-12-16T11:18:19;179.80;2252.80
16491;DHT22;8356;51.214;3.270;2022-12-16T11:21:15;179.70;2252.80
16491;DHT22;8356;51.214;3.270;2022-12-16T11:24:15;179.80;2252.80
16491;DHT22;8356;51.214;3.270;2022-12-16T11:27:05;180.00;2252.80
16491;DHT22;8356;51.214;3.270;2022-12-16T11:29:57;180.00;2252.80
16491;DHT22;8356;51.214;3.270;2022-12-16T11:32:53;180.10;2252.80
16491;DHT22;8356;51.214;3.270;2022-12-16T11:35:42;180.10;2252.80
16491;DHT22;8356;51.214;3.270;2022-12-16T11:38:43;180.10;2252.80
16491;DHT22;8356;51.214;3.270;2022-12-16T11:41:32;180.10;2252.80
16491;DHT22;8356;51.214;3.270;2022-12-16T11:44:22;180.00;2252.80
16491;DHT22;8356;51.214;3.270;2022-12-16T11:47:19;180.10;2252.80
16491;DHT22;8356;51.214;3.270;2022-12-16T11:50:10;204.80;2252.80
16491;DHT22;8356;51.214;3.270;2022-12-16T11:53:37;180.10;2252.80
16491;DHT22;8356;51.214;3.270;2022-12-16T11:56:26;180.00;2252.80
16491;DHT22;8356;51.214;3.270;2022-12-16T11:59:36;179.90;2252.80
16491;DHT22;8356;51.214;3.270;2022-12-16T12:05:35;179.90;2252.80
16491;DHT22;8356;51.214;3.270;2022-12-16T12:11:42;180.10;2252.80
16491;DHT22;8356;51.214;3.270;2022-12-16T12:14:52;180.00;2252.80
16491;DHT22;8356;51.214;3.270;2022-12-16T12:21:03;180.00;2252.80
16491;DHT22;8356;51.214;3.270;2022-12-16T12:30:23;180.10;2252.80
16491;DHT22;8356;51.214;3.270;2022-12-16T12:33:39;180.10;2252.80
16491;DHT22;8356;51.214;3.270;2022-12-16T12:36:45;204.80;2252.80
16491;DHT22;8356;51.214;3.270;2022-12-16T12:39:39;204.80;2252.80
16491;DHT22;8356;51.214;3.270;2022-12-16T12:42:44;179.80;2252.80
16491;DHT22;8356;51.214;3.270;2022-12-16T12:48:56;179.90;2252.80
16491;DHT22;8356;51.214;3.270;2022-12-16T12:52:25;180.00;2252.80
16491;DHT22;8356;51.214;3.270;2022-12-16T12:55:16;180.00;2252.80
16491;DHT22;8356;51.214;3.270;2022-12-16T12:58:04;179.90;2252.80
16491;DHT22;8356;51.214;3.270;2022-12-16T13:00:52;179.30;2252.80
16491;DHT22;8356;51.214;3.270;2022-12-16T13:03:50;179.80;2252.80
16491;DHT22;8356;51.214;3.270;2022-12-16T13:06:38;179.90;2252.80
16491;DHT22;8356;51.214;3.270;2022-12-16T13:09:28;180.00;2252.80
16491;DHT22;8356;51.214;3.270;2022-12-16T13:20:57;204.80;2252.80
16491;DHT22;8356;51.214;3.270;2022-12-16T13:23:43;204.80;2252.80
16491;DHT22;8356;51.214;3.270;2022-12-16T13:26:32;204.80;2252.80
16491;DHT22;8356;51.214;3.270;2022-12-16T13:29:26;204.90;2252.80
16491;DHT22;8356;51.214;3.270;2022-12-16T13:35:15;180.10;2252.80
16491;DHT22;8356;51.214;3.270;2022-12-16T13:44:07;204.80;2252.80
16491;DHT22;8356;51.214;3.270;2022-12-16T13:46:53;180.10;2252.80
16491;DHT22;8356;51.214;3.270;2022-12-16T13:49:49;180.00;2252.80
16491;DHT22;8356;51.214;3.270;2022-12-16T13:55:34;179.90;2252.80
16491;DHT22;8356;51.214;3.270;2022-12-16T13:58:50;180.10;2252.80
16491;DHT22;8356;51.214;3.270;2022-12-16T14:04:36;180.00;2252.80
16491;DHT22;8356;51.214;3.270;2022-12-16T14:07:23;180.10;2252.80
16491;DHT22;8356;51.214;3.270;2022-12-16T14:10:33;180.10;2252.80
16491;DHT22;8356;51.214;3.270;2022-12-16T14:16:42;180.00;2252.80
16491;DHT22;8356;51.214;3.270;2022-12-16T14:22:48;180.00;2252.80
16491;DHT22;8356;51.214;3.270;2022-12-16T14:25:34;179.80;2252.80
16491;DHT22;8356;51.214;3.270;2022-12-16T14:28:28;179.80;2252.80
16491;DHT22;8356;51.214;3.270;2022-12-16T14:31:21;179.90;2252.80
16491;DHT22;8356;51.214;3.270;2022-12-16T14:34:26;180.00;2252.80
16491;DHT22;8356;51.214;3.270;2022-12-16T14:37:14;180.00;2252.80
16491;DHT22;8356;51.214;3.270;2022-12-16T14:39:59;179.90;2252.80
16491;DHT22;8356;51.214;3.270;2022-12-16T14:43:00;180.00;2252.80
16491;DHT22;8356;51.214;3.270;2022-12-16T14:45:48;180.00;2252.80
16491;DHT22;8356;51.214;3.270;2022-12-16T14:48:37;180.00;2252.80
16491;DHT22;8356;51.214;3.270;2022-12-16T14:57:02;180.00;2252.80
16491;DHT22;8356;51.214;3.270;2022-12-16T14:59:47;180.00;2252.80
16491;DHT22;8356;51.214;3.270;2022-12-16T15:02:44;180.00;2252.80
16491;DHT22;8356;51.214;3.270;2022-12-16T15:05:32;180.00;2252.80
16491;DHT22;8356;51.214;3.270;2022-12-16T15:08:17;180.00;2252.80
16491;DHT22;8356;51.214;3.270;2022-12-16T15:11:04;180.00;2252.80
16491;DHT22;8356;51.214;3.270;2022-12-16T15:13:55;179.80;2252.80
16491;DHT22;8356;51.214;3.270;2022-12-16T15:16:41;179.50;2252.80
16491;DHT22;8356;51.214;3.270;2022-12-16T15:19:26;179.60;2252.80
16491;DHT22;8356;51.214;3.270;2022-12-16T15:22:15;179.60;2252.80
16491;DHT22;8356;51.214;3.270;2022-12-16T15:24:59;179.50;2252.80
16491;DHT22;8356;51.214;3.270;2022-12-16T15:27:55;179.60;2252.80
16491;DHT22;8356;51.214;3.270;2022-12-16T15:30:42;179.70;2252.80
16491;DHT22;8356;51.214;3.270;2022-12-16T15:33:29;179.80;2252.80
16491;DHT22;8356;51.214;3.270;2022-12-16T15:36:30;179.80;2252.80
16491;DHT22;8356;51.214;3.270;2022-12-16T15:42:25;179.60;2252.80
16491;DHT22;8356;51.214;3.270;2022-12-16T15:45:31;179.60;2252.80
16491;DHT22;8356;51.214;3.270;2022-12-16T15:48:22;179.40;2252.80
16491;DHT22;8356;51.214;3.270;2022-12-16T15:54:28;154.50;2252.80
16491;DHT22;8356;51.214;3.270;2022-12-16T15:57:25;179.20;2252.80
16491;DHT22;8356;51.214;3.270;2022-12-16T16:00:28;154.50;2252.80
16491;DHT22;8356;51.214;3.270;2022-12-16T16:03:27;154.50;2252.80
16491;DHT22;8356;51.214;3.270;2022-12-16T16:06:17;154.30;2252.80
16491;DHT22;8356;51.214;3.270;2022-12-16T16:09:26;154.30;2252.80
16491;DHT22;8356;51.214;3.270;2022-12-16T16:12:12;154.10;2252.80
16491;DHT22;8356;51.214;3.270;2022-12-16T16:14:56;154.00;2252.80
16491;DHT22;8356;51.214;3.270;2022-12-16T16:17:41;153.90;2252.80
16491;DHT22;8356;51.214;3.270;2022-12-16T16:20:26;153.90;2252.80
16491;DHT22;8356;51.214;3.270;2022-12-16T16:23:10;154.00;2252.80
16491;DHT22;8356;51.214;3.270;2022-12-16T16:25:54;154.10;2252.80
16491;DHT22;8356;51.214;3.270;2022-12-16T16:28:39;153.90;2252.80
16491;DHT22;8356;51.214;3.270;2022-12-16T16:31:23;153.90;2252.80
16491;DHT22;8356;51.214;3.270;2022-12-16T16:34:08;153.90;2252.80
16491;DHT22;8356;51.214;3.270;2022-12-16T16:36:54;153.90;2252.80
16491;DHT22;8356;51.214;3.270;2022-12-16T16:39:39;153.80;2252.80
16491;DHT22;8356;51.214;3.270;2022-12-16T16:42:23;153.80;2252.80
16491;DHT22;8356;51.214;3.270;2022-12-16T16:45:08;153.80;2252.80
16491;DHT22;8356;51.214;3.270;2022-12-16T16:48:14;153.80;2252.80
16491;DHT22;8356;51.214;3.270;2022-12-16T16:51:00;153.70;2252.80
16491;DHT22;8356;51.214;3.270;2022-12-16T16:53:45;153.70;2252.80
16491;DHT22;8356;51.214;3.270;2022-12-16T16:56:34;153.70;2252.80
16491;DHT22;8356;51.214;3.270;2022-12-16T16:59:21;128.50;2252.80
16491;DHT22;8356;51.214;3.270;2022-12-16T17:02:23;128.90;2252.80
16491;DHT22;8356;51.214;3.270;2022-12-16T17:05:27;153.60;2252.80
16491;DHT22;8356;51.214;3.270;2022-12-16T17:08:11;153.60;2252.80
16491;DHT22;8356;51.214;3.270;2022-12-16T17:10:55;128.90;2252.80
16491;DHT22;8356;51.214;3.270;2022-12-16T17:13:59;153.60;2252.80
16491;DHT22;8356;51.214;3.270;2022-12-16T17:16:44;128.90;2252.80
16491;DHT22;8356;51.214;3.270;2022-12-16T17:19:28;128.80;2252.80
16491;DHT22;8356;51.214;3.270;2022-12-16T17:22:12;128.80;2252.80
16491;DHT22;8356;51.214;3.270;2022-12-16T17:24:56;128.80;2252.80
16491;DHT22;8356;51.214;3.270;2022-12-16T17:27:42;128.80;2252.80
16491;DHT22;8356;51.214;3.270;2022-12-16T17:30:27;128.80;2252.80
16491;DHT22;8356;51.214;3.270;2022-12-16T17:33:11;128.80;2252.80
16491;DHT22;8356;51.214;3.270;2022-12-16T17:35:57;128.80;2252.80
16491;DHT22;8356;51.214;3.270;2022-12-16T17:38:42;128.70;2252.80
16491;DHT22;8356;51.214;3.270;2022-12-16T17:41:28;128.70;2252.80
16491;DHT22;8356;51.214;3.270;2022-12-16T17:44:13;128.70;2252.80
16491;DHT22;8356;51.214;3.270;2022-12-16T17:46:57;128.70;2252.80
16491;DHT22;8356;51.214;3.270;2022-12-16T17:49:41;128.70;2252.80
16491;DHT22;8356;51.214;3.270;2022-12-16T17:52:25;128.60;2252.80
16491;DHT22;8356;51.214;3.270;2022-12-16T17:55:09;128.50;2252.80
16491;DHT22;8356;51.214;3.270;2022-12-16T17:57:54;128.40;2252.80
16491;DHT22;8356;51.214;3.270;2022-12-16T18:00:38;128.50;2252.80
16491;DHT22;8356;51.214;3.270;2022-12-16T18:03:22;128.40;2252.80
16491;DHT22;8356;51.214;3.270;2022-12-16T18:06:07;128.40;2252.80
16491;DHT22;8356;51.214;3.270;2022-12-16T18:08:51;128.50;2252.80
16491;DHT22;8356;51.214;3.270;2022-12-16T18:11:35;128.60;2252.80
16491;DHT22;8356;51.214;3.270;2022-12-16T18:14:19;128.70;2252.80
16491;DHT22;8356;51.214;3.270;2022-12-16T18:17:03;128.60;2252.80
16491;DHT22;8356;51.214;3.270;2022-12-16T18:19:47;128.40;2252.80
16491;DHT22;8356;51.214;3.270;2022-12-16T18:22:31;128.40;2252.80
16491;DHT22;8356;51.214;3.270;2022-12-16T18:25:15;128.50;2252.80
16491;DHT22;8356;51.214;3.270;2022-12-16T18:27:59;128.50;2252.80